Time;durP1;ratioP1;P1;durP2;ratioP2;P2;SDS_P1;SDS_P2;PMS_P1;PMS_P2;Temp;Humidity;BMP_temperature;BMP_pressure;BME280_temperature;BME280_humidity;BME280_pressure;Samples;Min_cycle;Max_cycle;Signal;HPM_P1;HPM_P2
2022/05/29 00:04:43;;;;;;;14.57;3.70;;;;;;;8.97;72.37;98448.28;10437634;28;20041;-74
2022/05/29 00:09:47;;;;;;;19.48;3.65;;;;;;;8.96;72.27;98452.66;10431064;28;20139;-75
2022/05/29 00:14:50;;;;;;;14.88;3.40;;;;;;;8.95;72.59;98450.94;10425461;28;20052;-75
2022/05/29 00:19:52;;;;;;;15.50;4.05;;;;;;;8.97;72.63;98463.97;10437255;28;20049;-75
2022/05/29 00:24:53;;;;;;;22.02;4.15;;;;;;;8.94;72.67;98459.63;10438416;28;20040;-75
2022/05/29 00:29:55;;;;;;;16.75;2.83;;;;;;;8.99;72.88;98478.72;10444152;28;20037;-74
2022/05/29 00:34:56;;;;;;;21.13;3.60;;;;;;;9.01;72.94;98487.38;10444268;28;20765;-76
2022/05/29 00:39:58;;;;;;;17.00;3.17;;;;;;;9.06;73.16;98508.19;10443772;28;20033;-77
2022/05/29 00:45:00;;;;;;;17.73;3.25;;;;;;;9.11;73.27;98529.03;10443971;28;20143;-75
2022/05/29 00:50:01;;;;;;;20.30;2.97;;;;;;;9.10;73.46;98532.53;10443127;28;20413;-76
2022/05/29 00:55:10;;;;;;;17.27;2.83;;;;;;;9.09;73.63;98528.19;10443308;28;20055;-73
2022/05/29 01:00:25;;;;;;;15.55;2.85;;;;;;;9.09;73.69;98536.88;10442916;28;20492;-75
2022/05/29 01:05:30;;;;;;;10.73;2.88;;;;;;;9.09;73.74;98533.41;10444209;28;20504;-74
2022/05/29 01:10:45;;;;;;;16.00;2.20;;;;;;;9.10;73.88;98540.38;10443743;28;20519;-75
2022/05/29 01:16:04;;;;;;;10.50;2.22;;;;;;;9.11;73.91;98549.91;10431139;28;20124;-75
2022/05/29 01:21:30;;;;;;;18.02;2.35;;;;;;;9.10;74.17;98543.84;10443124;28;20152;-75
2022/05/29 01:27:16;;;;;;;13.63;2.88;;;;;;;9.09;74.11;98546.47;10435731;28;20526;-75
2022/05/29 01:32:34;;;;;;;12.20;2.67;;;;;;;9.07;74.04;98532.56;10434778;28;20616;-75
2022/05/29 01:37:50;;;;;;;14.52;3.42;;;;;;;9.03;74.15;98529.97;10441890;28;20136;-74
2022/05/29 01:43:01;;;;;;;12.85;3.08;;;;;;;9.08;74.53;98555.19;10432516;28;20123;-74
2022/05/29 01:48:18;;;;;;;12.77;2.53;;;;;;;9.02;74.47;98530.00;10442670;28;20049;-75
2022/05/29 01:53:33;;;;;;;12.35;2.80;;;;;;;9.03;74.60;98537.81;10417280;28;20071;-74
2022/05/29 01:58:38;;;;;;;9.75;2.35;;;;;;;9.05;74.64;98544.78;10418199;28;20041;-74
2022/05/29 02:03:45;;;;;;;14.50;4.47;;;;;;;8.99;74.91;98525.72;10429109;28;20045;-74
2022/05/29 02:09:03;;;;;;;14.15;2.88;;;;;;;8.95;74.76;98513.56;10440411;28;20037;-75
2022/05/29 02:14:15;;;;;;;17.25;3.45;;;;;;;8.93;75.01;98507.53;10409151;28;20163;-75
2022/05/29 02:19:33;;;;;;;16.83;3.70;;;;;;;8.92;75.01;98505.78;10435450;28;20111;-75
2022/05/29 02:24:50;;;;;;;16.23;2.47;;;;;;;8.92;75.04;98505.78;10427738;28;20152;-73
2022/05/29 02:29:57;;;;;;;11.07;2.60;;;;;;;8.97;75.52;98531.81;10438058;28;20055;-74
2022/05/29 02:35:10;;;;;;;15.43;2.92;;;;;;;8.96;75.40;98530.09;10439595;28;20049;-75
2022/05/29 02:40:51;;;;;;;13.98;2.70;;;;;;;8.98;75.28;98544.84;10426835;28;20059;-73
2022/05/29 02:46:22;;;;;;;20.80;4.07;;;;;;;8.98;75.39;98536.16;10438949;28;20033;-75
2022/05/29 02:51:44;;;;;;;10.38;2.67;;;;;;;8.95;75.65;98531.84;10437600;28;20565;-75
2022/05/29 02:56:45;;;;;;;26.23;3.55;;;;;;;8.96;75.42;98538.81;10429219;28;20033;-75
2022/05/29 03:02:11;;;;;;;10.82;2.75;;;;;;;8.93;75.78;98541.44;10437846;28;20145;-74
2022/05/29 03:07:42;;;;;;;15.68;2.80;;;;;;;8.89;75.76;98524.09;10437795;28;20049;-75
2022/05/29 03:13:02;;;;;;;13.45;2.95;;;;;;;8.90;75.72;98517.13;10438068;28;20136;-75
2022/05/29 03:18:25;;;;;;;26.47;3.27;;;;;;;8.89;75.96;98524.09;10428073;28;20040;-75
2022/05/29 03:23:46;;;;;;;19.35;2.90;;;;;;;8.90;76.13;98527.56;10435796;28;20068;-74
2022/05/29 03:28:55;;;;;;;12.45;2.70;;;;;;;8.90;76.15;98524.94;10430459;28;20045;-74
2022/05/29 03:33:58;;;;;;;10.52;2.53;;;;;;;8.92;76.23;98550.16;10438451;28;20041;-74
2022/05/29 03:38:59;;;;;;;17.30;3.42;;;;;;;8.96;76.25;98564.00;10438501;28;20053;-75
2022/05/29 03:44:01;;;;;;;15.75;2.75;;;;;;;9.00;76.44;98579.63;10404555;28;20144;-74
2022/05/29 03:49:02;;;;;;;16.73;3.13;;;;;;;9.05;76.47;98596.97;10424865;28;20139;-73
2022/05/29 03:54:05;;;;;;;16.73;2.80;;;;;;;9.09;76.64;98609.13;10425832;28;20139;-74
2022/05/29 03:59:06;;;;;;;15.20;3.38;;;;;;;9.11;76.64;98631.72;10440718;28;20041;-74
2022/05/29 04:04:08;;;;;;;22.77;3.08;;;;;;;9.13;76.52;98631.72;10446459;28;20045;-75
2022/05/29 04:14:43;;;;;;;14.32;2.72;;;;;;;9.19;77.01;98665.59;10439387;28;20141;-74
2022/05/29 04:19:44;;;;;;;14.13;2.72;;;;;;;9.25;77.05;98694.25;10435605;28;20128;-73
2022/05/29 04:24:46;;;;;;;18.58;3.50;;;;;;;9.24;77.15;98691.66;10429224;28;20041;-74
2022/05/29 04:29:48;;;;;;;12.73;2.22;;;;;;;9.27;77.11;98702.91;10444096;28;20053;-75
2022/05/29 04:34:56;;;;;;;14.52;2.47;;;;;;;9.26;77.32;98708.16;10443684;28;20745;-75
2022/05/29 04:39:57;;;;;;;13.65;2.45;;;;;;;9.23;77.44;98701.19;10428391;28;20064;-75
2022/05/29 04:44:59;;;;;;;17.30;3.00;;;;;;;9.29;77.57;98722.06;10425317;28;20040;-74
2022/05/29 04:50:00;;;;;;;11.98;2.90;;;;;;;9.28;77.59;98720.31;10424002;28;20047;-75
2022/05/29 04:55:03;;;;;;;14.55;3.05;;;;;;;9.33;77.78;98739.41;10442986;28;20068;-75
2022/05/29 05:00:05;;;;;;;9.73;2.42;;;;;;;9.40;77.73;98773.28;10441988;28;20053;-75
2022/05/29 05:05:08;;;;;;;17.50;2.50;;;;;;;9.41;77.95;98777.66;10431749;28;20437;-76
2022/05/29 05:10:13;;;;;;;15.40;2.47;;;;;;;9.44;78.03;98795.91;10419891;28;20148;-74
2022/05/29 05:15:15;;;;;;;15.52;2.45;;;;;;;9.48;78.03;98810.66;10423871;28;20037;-75
2022/05/29 05:20:17;;;;;;;12.75;2.30;;;;;;;9.51;78.09;98827.16;10428381;28;20040;-76
2022/05/29 05:25:19;;;;;;;16.45;4.07;;;;;;;9.58;78.17;98864.56;10417356;28;20119;-75
2022/05/29 05:30:21;;;;;;;22.58;3.25;;;;;;;9.62;78.21;98881.94;10410358;28;20979;-74
2022/05/29 05:35:23;;;;;;;11.57;2.00;;;;;;;9.70;78.27;98905.41;10411338;28;20068;-75
2022/05/29 05:40:24;;;;;;;10.93;2.10;;;;;;;9.66;78.22;98896.69;10414870;28;20041;-73
2022/05/29 05:45:26;;;;;;;12.68;2.13;;;;;;;9.62;78.62;98876.69;10421511;28;20116;-74
2022/05/29 05:50:31;;;;;;;12.27;1.95;;;;;;;9.62;78.58;98889.75;10431293;28;20045;-76
2022/05/29 05:55:32;;;;;;;17.83;2.70;;;;;;;9.62;78.44;98886.28;10426836;28;20132;-75
2022/05/29 06:00:34;;;;;;;15.40;2.38;;;;;;;9.67;78.49;98910.66;10442098;28;20040;-76
2022/05/29 06:05:35;;;;;;;10.20;2.30;;;;;;;9.70;78.45;98931.53;10414108;28;20077;-75
2022/05/29 06:10:37;;;;;;;11.63;2.30;;;;;;;9.78;78.77;98949.75;10417206;28;20045;-77
2022/05/29 06:15:39;;;;;;;11.15;2.65;;;;;;;9.67;78.70;98921.09;10432128;28;20203;-74
2022/05/29 06:20:41;;;;;;;10.57;2.08;;;;;;;9.68;78.76;98923.72;10438708;28;20068;-76
2022/05/29 06:25:43;;;;;;;12.05;2.03;;;;;;;9.72;78.78;98941.06;10440169;28;20115;-76
2022/05/29 06:30:45;;;;;;;8.45;2.00;;;;;;;9.77;79.03;98963.69;10428011;28;20037;-77
2022/05/29 06:35:46;;;;;;;17.80;2.55;;;;;;;9.85;78.96;98990.66;10439913;28;20095;-77
2022/05/29 06:40:49;;;;;;;9.32;1.98;;;;;;;9.94;79.21;99028.91;10439463;28;20148;-77
2022/05/29 06:45:58;;;;;;;10.15;2.25;;;;;;;9.98;79.14;99055.00;10436481;28;20138;-76
2022/05/29 06:51:07;;;;;;;13.55;3.30;;;;;;;10.05;79.11;99082.84;10413213;28;20044;-77
2022/05/29 06:56:09;;;;;;;17.20;2.63;;;;;;;10.12;79.09;99106.31;10460177;28;20475;-76
2022/05/29 07:12:10;;;;;;;18.73;2.42;;;;;;;10.27;79.44;99179.47;10432484;28;20453;-77
2022/05/29 07:17:13;;;;;;;15.30;2.30;;;;;;;10.31;79.38;99202.09;10431771;28;20118;-80
2022/05/29 07:22:15;;;;;;;13.90;2.22;;;;;;;10.26;79.62;99172.50;10444872;28;20736;-77
2022/05/29 07:27:17;;;;;;;13.90;2.28;;;;;;;10.08;79.59;99103.72;10440359;28;20643;-77
2022/05/29 07:32:20;;;;;;;16.25;2.10;;;;;;;9.89;79.34;99026.31;10441923;28;20504;-77
2022/05/29 07:37:22;;;;;;;10.73;1.67;;;;;;;9.90;79.45;99030.69;10445506;28;20049;-76
2022/05/29 07:47:46;;;;;;;14.27;2.05;;;;;;;10.26;79.73;99183.81;10447032;28;20044;-76
2022/05/29 07:52:50;;;;;;;11.57;2.08;;;;;;;10.20;79.70;99168.16;10447152;28;20080;-75
2022/05/29 07:57:53;;;;;;;10.25;1.80;;;;;;;10.13;79.79;99137.69;10441010;28;20537;-74
2022/05/29 08:02:54;;;;;;;165.75;13.23;;;;;;;9.88;79.81;99041.16;10446279;28;20045;-78
2022/05/29 08:07:57;;;;;;;14.05;1.98;;;;;;;9.96;79.74;99069.00;10447434;28;20087;-76
2022/05/29 08:12:59;;;;;;;8.82;1.45;;;;;;;10.19;79.88;99160.31;10443331;28;20512;-75
2022/05/29 08:18:05;;;;;;;13.18;1.77;;;;;;;10.61;79.82;99328.41;10450643;28;20143;-80
2022/05/29 08:23:07;;;;;;;7.82;1.70;;;;;;;10.98;80.15;99492.31;10432135;28;20044;-76
2022/05/29 08:33:30;;;;;;;;;;;;;;;10.94;80.29;99481.84;10414117;28;20044;-76
2022/05/29 08:38:34;;;;;;;9.18;2.25;;;;;;;10.86;80.22;99446.94;10440402;28;19920;-73
2022/05/29 08:43:39;;;;;;;13.45;1.70;;;;;;;10.71;80.11;99390.31;10423725;28;20512;-72
2022/05/29 08:48:41;;;;;;;9.40;1.80;;;;;;;10.81;80.18;99432.13;10430688;28;20520;-73
2022/05/29 08:54:00;;;;;;;12.32;1.75;;;;;;;10.87;80.41;99458.28;10437380;28;20049;-74
2022/05/29 08:59:07;;;;;;;10.37;1.70;;;;;;;10.76;80.53;99409.50;10419272;28;20059;-74
2022/05/29 09:04:34;;;;;;;12.18;1.77;;;;;;;10.60;80.51;99342.41;10438150;28;20091;-73
2022/05/29 09:09:35;;;;;;;7.28;1.63;;;;;;;10.40;80.35;99270.13;10407688;28;20083;-76
2022/05/29 09:14:37;;;;;;;13.38;1.70;;;;;;;10.35;80.50;99253.56;10438981;28;20128;-75
2022/05/29 09:19:47;;;;;;;8.07;2.13;;;;;;;10.36;80.37;99255.31;10434507;28;20427;-75
2022/05/29 09:24:57;;;;;;;9.18;2.00;;;;;;;10.40;80.41;99285.81;10442324;28;20033;-76
2022/05/29 09:29:59;;;;;;;7.07;1.63;;;;;;;10.30;80.47;99230.88;10433157;28;20128;-75
2022/05/29 09:35:16;;;;;;;6.20;1.20;;;;;;;10.36;80.44;99254.44;10431627;28;21876;-74
2022/05/29 09:40:24;;;;;;;8.40;1.65;;;;;;;10.30;80.59;99230.88;10406579;28;20049;-76
2022/05/29 09:45:32;;;;;;;13.75;2.13;;;;;;;10.59;80.59;99365.06;10431477;28;20513;-75
2022/05/29 09:50:48;;;;;;;6.28;1.20;;;;;;;10.70;80.72;99404.25;10440422;28;20680;-76
2022/05/29 09:55:55;;;;;;;16.98;2.38;;;;;;;10.92;80.81;99495.81;10430989;28;20091;-75
2022/05/29 10:01:04;;;;;;;3.88;1.17;;;;;;;11.30;80.91;99658.06;10431698;28;20128;-75
2022/05/29 10:06:28;;;;;;;8.67;1.70;;;;;;;11.65;81.04;99803.00;10436018;28;20040;-76
2022/05/29 10:11:32;;;;;;;1.73;0.70;;;;;;;11.61;80.86;99781.16;10370057;28;20556;-74
2022/05/29 10:16:36;;;;;;;4.60;1.40;;;;;;;11.59;81.06;99784.66;10398040;28;20429;-76
2022/05/29 10:21:50;;;;;;;7.80;1.10;;;;;;;11.52;80.98;99746.25;10398994;28;20045;-74
2022/05/29 10:26:57;;;;;;;7.72;1.58;;;;;;;11.34;81.17;99685.13;10408112;28;20051;-77
2022/05/29 10:32:03;;;;;;;4.32;1.30;;;;;;;11.44;81.18;99718.31;10408422;28;20136;-77
2022/05/29 10:37:24;;;;;;;3.45;1.20;;;;;;;11.80;81.15;99867.63;10400628;28;20159;-76
2022/05/29 10:42:44;;;;;;;5.10;1.27;;;;;;;11.82;81.19;99885.13;10385396;28;20045;-77
2022/05/29 10:48:00;;;;;;;5.22;0.88;;;;;;;12.00;81.24;99948.97;10388522;28;20136;-76
2022/05/29 10:53:13;;;;;;;10.48;1.52;;;;;;;11.98;81.06;99940.19;10394977;28;20155;-75
2022/05/29 10:58:37;;;;;;;6.50;1.45;;;;;;;11.94;81.08;99934.09;10413398;28;20654;-79
2022/05/29 11:04:10;;;;;;;7.68;1.20;;;;;;;11.97;80.84;99934.09;10414184;28;20100;-79
2022/05/29 11:09:34;;;;;;;5.53;1.10;;;;;;;12.04;81.01;99971.69;10419639;28;20051;-79
2022/05/29 11:15:02;;;;;;;9.60;1.77;;;;;;;12.13;81.19;100011.03;10430693;28;20494;-78
2022/05/29 11:20:19;;;;;;;14.00;1.77;;;;;;;11.98;80.99;99955.94;10422475;28;20403;-81
2022/05/29 11:25:40;;;;;;;5.28;1.10;;;;;;;11.94;80.90;99933.22;10421028;28;20076;-80
2022/05/29 11:30:44;;;;;;;5.70;1.20;;;;;;;11.92;80.93;99921.81;10431364;28;20107;-80
2022/05/29 11:35:49;;;;;;;6.15;1.10;;;;;;;11.79;80.77;99874.63;10429521;28;20049;-81
2022/05/29 11:41:20;;;;;;;8.27;1.00;;;;;;;11.80;80.72;99868.53;10417595;28;20038;-80
2022/05/29 11:52:01;;;;;;;8.47;1.60;;;;;;;12.16;80.76;100021.53;10420888;28;20052;-86
2022/05/29 11:57:19;;;;;;;8.48;1.73;;;;;;;12.29;80.79;100082.72;10426889;28;20455;-83
2022/05/29 12:02:40;;;;;;;5.82;1.38;;;;;;;12.44;80.75;100147.47;10438154;28;20049;-82
2022/05/29 12:07:54;;;;;;;7.75;1.65;;;;;;;12.51;80.77;100161.50;10431617;28;20096;-82
2022/05/29 12:13:03;;;;;;;6.35;1.10;;;;;;;12.51;80.66;100172.00;10412593;28;20056;-75
2022/05/29 12:18:20;;;;;;;7.65;1.23;;;;;;;12.61;80.50;100215.78;10415187;28;20041;-73
2022/05/29 12:23:26;;;;;;;6.20;1.48;;;;;;;12.57;80.46;100192.13;10420582;28;20109;-79
2022/05/29 12:28:35;;;;;;;7.18;1.30;;;;;;;12.23;80.36;100042.50;10418990;28;20153;-76
2022/05/29 12:33:43;;;;;;;7.97;1.55;;;;;;;12.32;80.17;100087.97;10412290;28;20075;-77
2022/05/29 12:39:20;;;;;;;5.82;1.83;;;;;;;12.05;80.13;99977.81;10426506;28;20073;-80
2022/05/29 12:44:49;;;;;;;7.13;2.50;;;;;;;11.79;80.08;99868.53;10408059;28;20069;-78
2022/05/29 12:50:16;;;;;;;5.32;1.30;;;;;;;12.15;80.01;100008.41;10406550;28;20033;-78
2022/05/29 12:55:29;;;;;;;11.38;1.65;;;;;;;12.65;80.19;100224.50;10400606;28;20124;-79
2022/05/29 13:00:38;;;;;;;11.50;1.17;;;;;;;12.84;80.03;100302.44;10423435;28;20136;-79
2022/05/29 13:06:23;;;;;;;8.60;1.40;;;;;;;12.62;79.98;100206.13;10443799;28;20040;-80
2022/05/29 13:11:33;;;;;;;9.88;1.65;;;;;;;12.43;79.88;100122.13;10469031;28;20485;-80
2022/05/29 13:16:40;;;;;;;5.95;2.45;;;;;;;11.95;79.78;99924.47;10445021;28;20075;-79
2022/05/29 13:22:02;;;;;;;8.95;2.05;;;;;;;11.46;79.73;99724.41;10437111;28;20424;-82
2022/05/29 13:27:12;;;;;;;9.93;2.42;;;;;;;11.41;79.51;99706.94;10437260;28;20197;-80
2022/05/29 13:32:14;;;;;;;10.40;1.80;;;;;;;11.60;79.57;99783.78;10447616;28;20059;-81
2022/05/29 13:37:45;;;;;;;11.80;2.58;;;;;;;11.67;79.50;99819.59;10447356;28;20044;-80
2022/05/29 13:42:50;;;;;;;9.60;1.98;;;;;;;11.89;79.51;99908.69;10449841;28;20041;-81
2022/05/29 13:48:04;;;;;;;10.02;1.50;;;;;;;12.02;79.44;99957.69;10450184;28;20069;-79
2022/05/29 13:53:20;;;;;;;9.07;1.77;;;;;;;11.67;79.35;99820.47;10447237;28;20049;-82
2022/05/29 14:04:04;;;;;;;8.98;1.75;;;;;;;10.80;78.93;99457.47;10432922;28;20049;-77
2022/05/29 14:09:31;;;;;;;7.85;1.50;;;;;;;10.61;79.06;99386.88;10430290;28;20040;-78
2022/05/29 14:14:37;;;;;;;13.95;1.95;;;;;;;10.64;79.10;99391.22;10442798;28;20523;-79
2022/05/29 14:20:23;;;;;;;14.70;1.65;;;;;;;10.63;79.12;99386.88;10437048;28;20132;-78
2022/05/29 14:26:06;;;;;;;16.10;1.85;;;;;;;10.47;79.00;99322.41;10438466;28;20132;-78
2022/05/29 14:31:40;;;;;;;10.30;1.92;;;;;;;10.33;79.00;99268.41;10437226;28;20515;-77
2022/05/29 14:37:03;;;;;;;10.70;1.70;;;;;;;10.27;78.96;99250.97;10430245;28;20052;-77
2022/05/29 14:42:10;;;;;;;11.07;2.72;;;;;;;10.13;78.91;99197.00;10431840;28;20051;-76
2022/05/29 14:47:35;;;;;;;14.93;2.15;;;;;;;10.20;79.02;99214.38;10413123;28;20049;-75
2022/05/29 14:52:55;;;;;;;12.50;2.65;;;;;;;10.37;79.07;99288.44;10429064;28;20140;-74
2022/05/29 14:57:59;;;;;;;12.52;1.85;;;;;;;10.56;79.26;99374.69;10429740;28;20056;-74
2022/05/29 15:03:09;;;;;;;19.83;4.22;;;;;;;10.56;79.17;99372.06;10433048;28;20065;-74
2022/05/29 15:13:57;;;;;;;15.77;2.67;;;;;;;10.70;79.29;99430.44;10427909;28;20059;-74
2022/05/29 15:19:14;;;;;;;22.77;4.30;;;;;;;10.86;79.50;99494.09;10432878;28;20087;-74
2022/05/29 15:24:25;;;;;;;21.90;6.18;;;;;;;10.89;79.47;99501.06;10412026;28;20469;-76
2022/05/29 15:29:29;;;;;;;8.25;2.30;;;;;;;10.68;79.57;99432.22;10405460;28;20112;-76
2022/05/29 15:34:40;;;;;;;20.80;3.05;;;;;;;10.56;79.54;99382.53;10403637;28;20076;-76
2022/05/29 15:40:10;;;;;;;17.70;3.08;;;;;;;10.46;79.64;99341.59;10420829;28;20073;-76
2022/05/29 15:45:28;;;;;;;13.05;2.55;;;;;;;10.30;79.59;99276.25;10411357;28;20127;-76
2022/05/29 15:51:12;;;;;;;20.88;4.95;;;;;;;10.02;79.45;99163.94;10422726;28;20090;-76
2022/05/29 15:56:35;;;;;;;12.07;2.53;;;;;;;9.77;79.55;99060.41;10431240;28;20477;-76
2022/05/29 16:02:01;;;;;;;13.48;2.22;;;;;;;9.70;79.60;99034.31;10444915;28;20081;-76
2022/05/29 16:07:03;;;;;;;10.63;2.22;;;;;;;9.84;79.57;99101.31;10422062;28;20421;-76
2022/05/29 16:12:15;;;;;;;14.90;3.05;;;;;;;10.00;79.79;99160.47;10416070;28;20045;-75
2022/05/29 16:17:53;;;;;;;10.10;3.90;;;;;;;10.10;79.68;99203.09;10409448;28;20040;-77
2022/05/29 16:23:01;;;;;;;15.55;2.15;;;;;;;10.13;79.85;99216.16;10424609;28;20076;-75
2022/05/29 16:28:43;;;;;;;9.20;2.08;;;;;;;10.09;79.74;99206.63;10445114;28;20033;-77
2022/05/29 16:33:52;;;;;;;10.75;2.25;;;;;;;9.99;79.78;99168.31;10444513;28;20132;-76
2022/05/29 16:49:42;;;;;;;20.00;3.60;;;;;;;9.55;79.76;98990.00;10435020;28;20508;-75
2022/05/29 16:54:44;;;;;;;15.95;4.47;;;;;;;9.54;79.88;98988.28;10445486;28;20048;-74
2022/05/29 16:59:54;;;;;;;15.52;2.50;;;;;;;9.62;79.60;99019.56;10445456;28;20049;-75
2022/05/29 17:05:03;;;;;;;16.40;2.28;;;;;;;9.69;79.84;99050.88;10446263;28;20855;-76
2022/05/29 17:10:16;;;;;;;10.77;2.25;;;;;;;9.70;79.99;99057.84;10397724;28;20041;-76
2022/05/29 17:15:22;;;;;;;13.02;2.22;;;;;;;9.76;79.87;99069.13;10404202;28;20053;-75
2022/05/29 17:20:25;;;;;;;8.55;1.95;;;;;;;9.79;80.03;99098.72;10415450;28;20057;-75
2022/05/29 17:26:00;;;;;;;9.90;1.77;;;;;;;9.75;80.07;99078.72;10411490;28;20045;-75
2022/05/29 17:31:10;;;;;;;16.08;2.13;;;;;;;9.75;79.97;99080.47;10394134;28;20049;-76
2022/05/29 17:36:34;;;;;;;14.77;2.15;;;;;;;9.76;80.03;99080.47;10393867;28;20171;-77
2022/05/29 17:41:36;;;;;;;14.35;2.40;;;;;;;9.78;80.14;99091.75;10401182;28;20464;-74
2022/05/29 17:46:43;;;;;;;17.73;2.35;;;;;;;9.72;80.12;99076.97;10406820;28;20563;-75
2022/05/29 17:52:11;;;;;;;9.05;2.25;;;;;;;9.70;80.09;99060.44;10402480;28;20042;-74
2022/05/29 17:57:15;;;;;;;9.00;1.95;;;;;;;9.66;80.05;99048.28;10408119;28;20051;-75
2022/05/29 18:02:17;;;;;;;11.95;2.38;;;;;;;9.64;80.00;99036.13;10438046;28;20139;-75
2022/05/29 18:07:19;;;;;;;13.30;2.20;;;;;;;9.63;80.01;99032.63;10415026;28;20037;-75
2022/05/29 18:12:25;;;;;;;11.50;2.83;;;;;;;9.61;80.08;99030.88;10414015;28;20055;-74
2022/05/29 18:17:27;;;;;;;15.00;3.88;;;;;;;9.57;80.00;99011.75;10401162;28;20156;-75
2022/05/29 18:22:30;;;;;;;10.07;2.17;;;;;;;9.55;80.09;99010.91;10404321;28;20048;-76
2022/05/29 18:27:32;;;;;;;15.50;2.40;;;;;;;9.57;80.13;99019.59;10406688;28;20041;-75
2022/05/29 18:32:34;;;;;;;10.80;2.00;;;;;;;9.61;80.15;99033.50;10407366;28;20568;-75
2022/05/29 18:37:36;;;;;;;17.92;3.47;;;;;;;9.61;80.05;99037.00;10395533;28;20038;-76
2022/05/29 18:42:37;;;;;;;11.45;2.55;;;;;;;9.61;80.13;99031.78;10401959;28;20045;-76
2022/05/29 18:47:39;;;;;;;19.67;6.50;;;;;;;9.64;80.16;99038.75;10399704;28;20061;-75
2022/05/29 18:52:41;;;;;;;15.82;2.25;;;;;;;9.60;79.96;99035.25;10397603;28;20040;-76
2022/05/29 18:57:42;;;;;;;10.73;2.08;;;;;;;9.56;79.94;99017.84;10400027;28;20056;-75
2022/05/29 19:02:46;;;;;;;10.20;1.98;;;;;;;9.55;80.18;99010.91;10418834;28;20041;-77
2022/05/29 19:07:49;;;;;;;9.32;2.03;;;;;;;9.51;80.19;98999.59;10386121;28;20045;-77
2022/05/29 19:12:52;;;;;;;12.05;2.58;;;;;;;9.48;80.08;98988.31;10386820;28;20128;-75
2022/05/29 19:18:15;;;;;;;9.23;1.63;;;;;;;9.44;80.12;98968.31;10390014;28;20128;-76
2022/05/29 19:23:16;;;;;;;11.77;2.55;;;;;;;9.41;80.17;98960.50;10404269;28;20055;-76
2022/05/29 19:28:18;;;;;;;14.57;2.08;;;;;;;9.37;80.04;98950.06;10397867;28;20401;-75
2022/05/29 19:33:19;;;;;;;11.20;2.22;;;;;;;9.33;80.01;98937.91;10396709;28;20041;-75
2022/05/29 19:38:23;;;;;;;10.27;2.05;;;;;;;9.34;80.18;98933.56;10402655;28;20124;-76
2022/05/29 19:43:28;;;;;;;12.93;1.88;;;;;;;9.29;80.41;98917.06;10417062;28;20132;-76
2022/05/29 19:48:31;;;;;;;13.85;2.00;;;;;;;9.20;80.22;98884.03;10439533;28;20148;-76
2022/05/29 19:53:33;;;;;;;15.38;2.13;;;;;;;9.05;80.05;98817.13;10438439;28;20574;-77
2022/05/29 19:58:37;;;;;;;12.88;2.28;;;;;;;8.90;80.10;98754.63;10436715;28;20052;-76
2022/05/29 20:03:41;;;;;;;16.67;1.95;;;;;;;8.71;80.02;98681.72;10434187;28;20662;-75
2022/05/29 20:08:45;;;;;;;11.95;2.13;;;;;;;8.59;79.95;98635.72;10435609;28;20049;-75
2022/05/29 20:13:47;;;;;;;15.82;2.70;;;;;;;8.59;79.97;98637.50;10435821;28;20049;-76
2022/05/29 20:18:48;;;;;;;13.93;2.00;;;;;;;8.59;79.89;98640.09;10435475;28;20424;-76
2022/05/29 20:23:56;;;;;;;9.98;1.83;;;;;;;8.61;80.04;98646.16;10423382;28;20417;-76
2022/05/29 20:28:58;;;;;;;12.13;2.25;;;;;;;8.63;80.02;98657.44;10435744;28;20123;-76
2022/05/29 20:34:00;;;;;;;8.68;1.80;;;;;;;8.66;79.98;98675.66;10434996;28;20509;-76
2022/05/29 20:39:01;;;;;;;6.88;1.67;;;;;;;8.69;79.98;98688.69;10435742;28;20057;-76
2022/05/29 20:44:03;;;;;;;17.42;1.80;;;;;;;8.71;79.92;98691.28;10439812;28;20045;-76
2022/05/29 20:49:08;;;;;;;14.10;2.70;;;;;;;8.72;79.97;98693.91;10442519;28;20879;-76
2022/05/29 20:54:21;;;;;;;10.85;1.90;;;;;;;8.74;80.15;98704.31;10441869;28;20581;-76
2022/05/29 20:59:24;;;;;;;13.63;3.28;;;;;;;8.72;80.04;98696.50;10433076;28;20049;-76
2022/05/29 21:04:30;;;;;;;10.32;1.75;;;;;;;8.72;80.11;98699.13;10441551;28;20063;-76
2022/05/29 21:09:31;;;;;;;12.45;1.75;;;;;;;8.72;80.21;98698.22;10441316;28;20833;-77
2022/05/29 21:14:34;;;;;;;14.45;1.90;;;;;;;8.72;80.19;98706.06;10442016;28;20078;-75
2022/05/29 21:19:36;;;;;;;12.77;2.08;;;;;;;8.78;80.06;98719.06;10441503;28;20068;-76
2022/05/29 21:24:38;;;;;;;11.05;1.77;;;;;;;8.76;80.04;98720.81;10441447;28;20041;-76
2022/05/29 21:29:40;;;;;;;15.80;3.05;;;;;;;8.74;80.16;98714.75;10442149;28;20124;-76
2022/05/29 21:34:42;;;;;;;9.98;1.65;;;;;;;8.73;80.12;98716.47;10442421;28;20132;-76
2022/05/29 21:39:44;;;;;;;15.73;2.47;;;;;;;8.74;80.36;98717.38;10440754;28;20047;-77
2022/05/29 21:44:46;;;;;;;11.68;2.28;;;;;;;8.74;80.12;98717.38;10441506;28;20500;-76
2022/05/29 21:49:48;;;;;;;11.32;2.00;;;;;;;8.73;80.13;98720.84;10440373;28;20136;-76
2022/05/29 21:54:49;;;;;;;6.40;1.50;;;;;;;8.74;80.12;98712.16;10439642;28;20037;-77
2022/05/29 21:59:51;;;;;;;15.55;2.42;;;;;;;8.72;80.05;98711.28;10441304;28;20540;-76
2022/05/29 22:04:53;;;;;;;8.02;1.50;;;;;;;8.69;80.14;98699.13;10439860;28;20037;-77
2022/05/29 22:09:58;;;;;;;10.85;3.17;;;;;;;8.68;80.08;98692.19;10439794;28;20528;-76
2022/05/29 22:14:59;;;;;;;6.88;1.48;;;;;;;8.63;80.24;98680.91;10439626;28;20047;-76
2022/05/29 22:20:01;;;;;;;10.35;1.90;;;;;;;8.62;80.06;98671.38;10440448;28;20043;-77
2022/05/29 22:25:03;;;;;;;15.00;2.13;;;;;;;8.64;80.25;98690.47;10439992;28;20542;-77
2022/05/29 22:30:05;;;;;;;8.18;1.98;;;;;;;8.59;80.30;98667.03;10439950;28;20099;-77
2022/05/29 22:35:09;;;;;;;15.20;1.92;;;;;;;8.58;80.30;98659.22;10439721;28;20047;-77
2022/05/29 22:40:14;;;;;;;9.55;1.65;;;;;;;8.55;80.27;98649.69;10439850;28;20088;-77
2022/05/29 22:45:16;;;;;;;6.05;1.50;;;;;;;8.54;80.24;98644.47;10441612;28;20084;-76
2022/05/29 22:50:20;;;;;;;12.55;2.17;;;;;;;8.53;80.23;98640.13;10440814;28;20542;-76
2022/05/29 22:55:23;;;;;;;11.82;1.60;;;;;;;8.50;80.22;98633.22;10440795;28;20087;-76
2022/05/29 23:00:28;;;;;;;13.90;2.60;;;;;;;8.48;80.21;98627.13;10440971;28;20122;-76
2022/05/29 23:05:30;;;;;;;15.55;1.83;;;;;;;8.43;80.36;98605.41;10439798;28;20123;-76
2022/05/29 23:10:33;;;;;;;6.82;1.65;;;;;;;8.41;80.12;98601.97;10440002;28;20045;-78
2022/05/29 23:15:36;;;;;;;13.25;1.90;;;;;;;8.37;80.36;98587.22;10428622;28;20049;-76
2022/05/29 23:20:38;;;;;;;13.82;1.90;;;;;;;8.38;80.25;98595.03;10432494;28;20051;-77
2022/05/29 23:25:39;;;;;;;11.27;1.63;;;;;;;8.37;80.26;98587.22;10440066;28;20757;-77
2022/05/29 23:30:47;;;;;;;10.75;1.65;;;;;;;8.36;80.36;98586.38;10440219;28;20670;-77
2022/05/29 23:35:49;;;;;;;11.73;1.55;;;;;;;8.29;80.43;98559.47;10439567;28;20051;-77
2022/05/29 23:40:50;;;;;;;10.38;2.33;;;;;;;8.29;80.32;98564.69;10439262;28;20052;-77
2022/05/29 23:45:59;;;;;;;8.27;1.35;;;;;;;8.24;80.36;98543.03;10440184;28;20041;-77
2022/05/29 23:51:01;;;;;;;8.60;1.55;;;;;;;8.26;79.97;98551.69;10439251;28;20511;-77
2022/05/29 23:56:05;;;;;;;8.75;1.33;;;;;;;8.25;80.30;98547.34;10426448;28;20480;-77
